sensor_id;sensor_type;location;lat;lon;timestamp;pressure;altitude;pressure_sealevel;temperature;humidity
78331;BME280;67594;53.854;-1.542;2023-02-15T00:01:05;100789.78;;;16.22;39.59
78331;BME280;67594;53.854;-1.542;2023-02-15T00:03:31;100797.47;;;16.08;40.25
78331;BME280;67594;53.854;-1.542;2023-02-15T00:05:57;100793.44;;;15.94;39.68
78331;BME280;67594;53.854;-1.542;2023-02-15T00:08:22;100784.13;;;15.79;40.67
78331;BME280;67594;53.854;-1.542;2023-02-15T00:10:47;100787.81;;;15.68;41.58
78331;BME280;67594;53.854;-1.542;2023-02-15T00:13:13;100789.81;;;15.57;41.40
78331;BME280;67594;53.854;-1.542;2023-02-15T00:15:38;100792.63;;;15.45;41.50
78331;BME280;67594;53.854;-1.542;2023-02-15T00:18:03;100780.22;;;15.35;40.88
78331;BME280;67594;53.854;-1.542;2023-02-15T00:20:29;100782.06;;;15.25;41.51
78331;BME280;67594;53.854;-1.542;2023-02-15T00:22:54;100782.03;;;15.15;42.45
78331;BME280;67594;53.854;-1.542;2023-02-15T00:25:19;100775.97;;;15.04;41.18
78331;BME280;67594;53.854;-1.542;2023-02-15T00:27:45;100776.81;;;14.95;42.23
78331;BME280;67594;53.854;-1.542;2023-02-15T00:30:10;100783.00;;;14.85;41.88
78331;BME280;67594;53.854;-1.542;2023-02-15T00:32:36;100783.84;;;14.76;42.17
78331;BME280;67594;53.854;-1.542;2023-02-15T00:35:01;100771.25;;;14.67;42.41
78331;BME280;67594;53.854;-1.542;2023-02-15T00:37:26;100777.19;;;14.61;42.30
78331;BME280;67594;53.854;-1.542;2023-02-15T00:39:52;100776.88;;;14.55;42.61
78331;BME280;67594;53.854;-1.542;2023-02-15T00:42:17;100773.19;;;14.46;42.67
78331;BME280;67594;53.854;-1.542;2023-02-15T00:44:42;100765.84;;;14.39;42.60
78331;BME280;67594;53.854;-1.542;2023-02-15T00:47:08;100764.63;;;14.31;43.14
78331;BME280;67594;53.854;-1.542;2023-02-15T00:49:33;100755.44;;;14.24;43.71
78331;BME280;67594;53.854;-1.542;2023-02-15T00:51:58;100757.69;;;14.19;44.57
78331;BME280;67594;53.854;-1.542;2023-02-15T00:54:23;100750.19;;;14.13;44.71
78331;BME280;67594;53.854;-1.542;2023-02-15T00:56:49;100743.53;;;14.08;44.44
78331;BME280;67594;53.854;-1.542;2023-02-15T00:59:14;100739.56;;;14.02;44.98
78331;BME280;67594;53.854;-1.542;2023-02-15T01:01:39;100731.06;;;13.97;45.29
78331;BME280;67594;53.854;-1.542;2023-02-15T01:04:05;100725.25;;;13.92;44.82
78331;BME280;67594;53.854;-1.542;2023-02-15T01:06:30;100720.16;;;13.89;45.75
78331;BME280;67594;53.854;-1.542;2023-02-15T01:08:55;100717.75;;;13.86;45.28
78331;BME280;67594;53.854;-1.542;2023-02-15T01:11:22;100718.19;;;13.82;45.67
78331;BME280;67594;53.854;-1.542;2023-02-15T01:13:55;100712.22;;;13.78;46.80
78331;BME280;67594;53.854;-1.542;2023-02-15T01:16:22;100706.28;;;13.74;46.12
78331;BME280;67594;53.854;-1.542;2023-02-15T01:18:47;100700.22;;;13.72;46.45
78331;BME280;67594;53.854;-1.542;2023-02-15T01:21:19;100696.69;;;13.72;47.39
78331;BME280;67594;53.854;-1.542;2023-02-15T01:23:44;100700.22;;;13.72;47.29
78331;BME280;67594;53.854;-1.542;2023-02-15T01:26:10;100695.84;;;13.71;46.96
78331;BME280;67594;53.854;-1.542;2023-02-15T01:28:37;100693.28;;;13.70;47.25
78331;BME280;67594;53.854;-1.542;2023-02-15T01:31:11;100694.41;;;13.67;47.43
78331;BME280;67594;53.854;-1.542;2023-02-15T01:33:38;100689.31;;;13.64;46.99
78331;BME280;67594;53.854;-1.542;2023-02-15T01:36:04;100684.09;;;13.63;46.83
78331;BME280;67594;53.854;-1.542;2023-02-15T01:38:30;100685.50;;;13.57;46.87
78331;BME280;67594;53.854;-1.542;2023-02-15T01:40:55;100682.94;;;13.56;47.20
78331;BME280;67594;53.854;-1.542;2023-02-15T01:43:20;100680.50;;;13.53;46.93
78331;BME280;67594;53.854;-1.542;2023-02-15T01:45:48;100670.34;;;13.47;47.11
78331;BME280;67594;53.854;-1.542;2023-02-15T01:48:24;100673.00;;;13.47;47.12
78331;BME280;67594;53.854;-1.542;2023-02-15T01:50:55;100668.78;;;13.44;47.31
78331;BME280;67594;53.854;-1.542;2023-02-15T01:53:27;100663.69;;;13.41;47.43
78331;BME280;67594;53.854;-1.542;2023-02-15T01:55:57;100661.16;;;13.40;48.16
78331;BME280;67594;53.854;-1.542;2023-02-15T01:58:26;100656.06;;;13.37;48.00
78331;BME280;67594;53.854;-1.542;2023-02-15T02:00:53;100652.81;;;13.33;47.83
78331;BME280;67594;53.854;-1.542;2023-02-15T02:03:32;100644.28;;;13.28;47.69
78331;BME280;67594;53.854;-1.542;2023-02-15T02:06:00;100644.72;;;13.23;47.52
78331;BME280;67594;53.854;-1.542;2023-02-15T02:08:26;100646.94;;;13.18;47.05
78331;BME280;67594;53.854;-1.542;2023-02-15T02:10:51;100639.19;;;13.15;46.69
78331;BME280;67594;53.854;-1.542;2023-02-15T02:13:16;100639.44;;;13.12;46.73
78331;BME280;67594;53.854;-1.542;2023-02-15T02:27:21;100599.84;;;12.95;47.62
78331;BME280;67594;53.854;-1.542;2023-02-15T02:30:12;100592.81;;;12.94;47.94
78331;BME280;67594;53.854;-1.542;2023-02-15T02:33:00;100581.38;;;12.92;48.28
78331;BME280;67594;53.854;-1.542;2023-02-15T02:35:50;100571.94;;;12.88;47.54
78331;BME280;67594;53.854;-1.542;2023-02-15T02:43:56;100558.22;;;12.82;48.33
78331;BME280;67594;53.854;-1.542;2023-02-15T02:46:32;100553.00;;;12.80;47.92
78331;BME280;67594;53.854;-1.542;2023-02-15T02:49:01;100546.09;;;12.78;48.56
78331;BME280;67594;53.854;-1.542;2023-02-15T02:51:26;100536.25;;;12.78;48.69
78331;BME280;67594;53.854;-1.542;2023-02-15T02:53:55;100538.66;;;12.81;48.57
78331;BME280;67594;53.854;-1.542;2023-02-15T02:56:28;100534.28;;;12.80;48.43
78331;BME280;67594;53.854;-1.542;2023-02-15T02:59:02;100529.78;;;12.81;48.81
78331;BME280;67594;53.854;-1.542;2023-02-15T03:01:37;100518.38;;;12.79;48.23
78331;BME280;67594;53.854;-1.542;2023-02-15T03:04:10;100512.31;;;12.77;48.66
78331;BME280;67594;53.854;-1.542;2023-02-15T03:06:56;100509.63;;;12.77;48.03
78331;BME280;67594;53.854;-1.542;2023-02-15T03:09:45;100517.78;;;12.75;48.94
78331;BME280;67594;53.854;-1.542;2023-02-15T03:12:16;100518.91;;;12.73;48.67
78331;BME280;67594;53.854;-1.542;2023-02-15T03:14:45;100511.25;;;12.68;48.44
78331;BME280;67594;53.854;-1.542;2023-02-15T03:17:13;100517.88;;;12.64;47.98
78331;BME280;67594;53.854;-1.542;2023-02-15T03:19:40;100515.72;;;12.58;47.89
78331;BME280;67594;53.854;-1.542;2023-02-15T03:22:16;100506.00;;;12.57;48.64
78331;BME280;67594;53.854;-1.542;2023-02-15T03:25:09;100502.88;;;12.52;48.69
78331;BME280;67594;53.854;-1.542;2023-02-15T03:27:38;100499.47;;;12.50;49.07
78331;BME280;67594;53.854;-1.542;2023-02-15T03:30:06;100502.41;;;12.47;48.67
78331;BME280;67594;53.854;-1.542;2023-02-15T03:32:34;100486.16;;;12.39;48.63
78331;BME280;67594;53.854;-1.542;2023-02-15T03:35:01;100485.72;;;12.34;48.71
78331;BME280;67594;53.854;-1.542;2023-02-15T03:40:11;100466.81;;;12.26;48.06
78331;BME280;67594;53.854;-1.542;2023-02-15T03:42:42;100471.00;;;12.19;48.75
78331;BME280;67594;53.854;-1.542;2023-02-15T03:45:11;100468.91;;;12.22;48.75
78331;BME280;67594;53.854;-1.542;2023-02-15T03:47:44;100456.78;;;12.18;48.92
78331;BME280;67594;53.854;-1.542;2023-02-15T03:52:40;100447.19;;;12.15;49.01
78331;BME280;67594;53.854;-1.542;2023-02-15T03:55:05;100442.22;;;12.11;48.70
78331;BME280;67594;53.854;-1.542;2023-02-15T03:57:31;100437.72;;;12.11;49.64
78331;BME280;67594;53.854;-1.542;2023-02-15T03:59:58;100451.09;;;12.11;48.45
78331;BME280;67594;53.854;-1.542;2023-02-15T04:02:29;100448.41;;;12.11;48.82
78331;BME280;67594;53.854;-1.542;2023-02-15T04:04:59;100444.06;;;12.10;49.61
78331;BME280;67594;53.854;-1.542;2023-02-15T04:07:24;100448.69;;;12.08;49.36
78331;BME280;67594;53.854;-1.542;2023-02-15T04:09:50;100439.56;;;12.11;49.13
78331;BME280;67594;53.854;-1.542;2023-02-15T04:12:15;100429.97;;;12.08;48.89
78331;BME280;67594;53.854;-1.542;2023-02-15T04:14:40;100426.59;;;12.06;49.64
78331;BME280;67594;53.854;-1.542;2023-02-15T04:17:07;100421.78;;;12.00;49.68
78331;BME280;67594;53.854;-1.542;2023-02-15T04:19:32;100423.84;;;11.97;49.83
78331;BME280;67594;53.854;-1.542;2023-02-15T04:21:57;100414.13;;;11.96;50.49
78331;BME280;67594;53.854;-1.542;2023-02-15T04:24:23;100407.97;;;11.95;50.29
78331;BME280;67594;53.854;-1.542;2023-02-15T04:26:48;100415.72;;;11.98;50.26
78331;BME280;67594;53.854;-1.542;2023-02-15T04:29:14;100416.09;;;11.94;50.44
78331;BME280;67594;53.854;-1.542;2023-02-15T04:31:40;100414.63;;;12.01;50.86
78331;BME280;67594;53.854;-1.542;2023-02-15T04:34:05;100406.59;;;12.01;49.47
78331;BME280;67594;53.854;-1.542;2023-02-15T04:36:31;100413.16;;;11.97;49.32
78331;BME280;67594;53.854;-1.542;2023-02-15T04:38:56;100406.53;;;11.91;49.08
78331;BME280;67594;53.854;-1.542;2023-02-15T04:41:21;100404.81;;;11.90;49.83
78331;BME280;67594;53.854;-1.542;2023-02-15T04:43:46;100397.59;;;11.81;49.07
78331;BME280;67594;53.854;-1.542;2023-02-15T04:46:12;100398.97;;;11.96;51.41
78331;BME280;67594;53.854;-1.542;2023-02-15T04:48:38;100397.53;;;11.92;49.66
78331;BME280;67594;53.854;-1.542;2023-02-15T04:51:06;100388.97;;;11.78;49.85
78331;BME280;67594;53.854;-1.542;2023-02-15T04:53:32;100381.94;;;13.09;52.33
78331;BME280;67594;53.854;-1.542;2023-02-15T04:55:57;100394.06;;;13.61;53.08
78331;BME280;67594;53.854;-1.542;2023-02-15T04:58:23;100382.38;;;13.81;51.49
78331;BME280;67594;53.854;-1.542;2023-02-15T05:00:48;100380.09;;;14.05;51.34
78331;BME280;67594;53.854;-1.542;2023-02-15T05:03:13;100381.44;;;14.28;50.35
78331;BME280;67594;53.854;-1.542;2023-02-15T05:05:39;100380.03;;;14.44;50.21
78331;BME280;67594;53.854;-1.542;2023-02-15T05:08:04;100375.03;;;14.58;49.73
78331;BME280;67594;53.854;-1.542;2023-02-15T05:10:29;100362.69;;;14.75;49.13
78331;BME280;67594;53.854;-1.542;2023-02-15T05:12:54;100355.03;;;14.80;49.02
78331;BME280;67594;53.854;-1.542;2023-02-15T05:15:20;100368.41;;;14.89;48.42
78331;BME280;67594;53.854;-1.542;2023-02-15T05:17:45;100359.75;;;14.96;49.05
78331;BME280;67594;53.854;-1.542;2023-02-15T05:20:10;100361.34;;;15.06;47.93
78331;BME280;67594;53.854;-1.542;2023-02-15T05:22:36;100352.69;;;15.12;48.47
78331;BME280;67594;53.854;-1.542;2023-02-15T05:25:01;100349.41;;;15.18;47.82
78331;BME280;67594;53.854;-1.542;2023-02-15T05:27:26;100346.41;;;15.21;48.14
78331;BME280;67594;53.854;-1.542;2023-02-15T05:29:52;100339.47;;;15.28;48.00
78331;BME280;67594;53.854;-1.542;2023-02-15T05:32:17;100345.19;;;15.33;47.95
78331;BME280;67594;53.854;-1.542;2023-02-15T05:34:42;100343.06;;;15.37;46.69
78331;BME280;67594;53.854;-1.542;2023-02-15T05:37:07;100341.06;;;15.39;47.41
78331;BME280;67594;53.854;-1.542;2023-02-15T05:39:33;100330.84;;;15.42;46.15
78331;BME280;67594;53.854;-1.542;2023-02-15T05:41:59;100331.41;;;15.46;47.29
78331;BME280;67594;53.854;-1.542;2023-02-15T05:44:25;100333.63;;;15.51;46.21
78331;BME280;67594;53.854;-1.542;2023-02-15T05:46:50;100331.34;;;15.56;46.12
78331;BME280;67594;53.854;-1.542;2023-02-15T05:49:16;100335.41;;;15.60;45.87
78331;BME280;67594;53.854;-1.542;2023-02-15T05:51:41;100329.88;;;15.61;46.80
78331;BME280;67594;53.854;-1.542;2023-02-15T05:54:06;100328.09;;;15.70;46.15
78331;BME280;67594;53.854;-1.542;2023-02-15T05:56:32;100317.50;;;15.68;46.31
78331;BME280;67594;53.854;-1.542;2023-02-15T05:58:57;100317.03;;;15.73;45.79
78331;BME280;67594;53.854;-1.542;2023-02-15T06:01:22;100311.66;;;15.73;46.39
78331;BME280;67594;53.854;-1.542;2023-02-15T06:03:48;100311.66;;;15.73;46.69
78331;BME280;67594;53.854;-1.542;2023-02-15T06:06:13;100314.88;;;15.76;46.36
78331;BME280;67594;53.854;-1.542;2023-02-15T06:08:38;100320.78;;;15.80;46.32
78331;BME280;67594;53.854;-1.542;2023-02-15T06:11:05;100316.41;;;15.79;45.74
78331;BME280;67594;53.854;-1.542;2023-02-15T06:13:31;100318.47;;;15.85;46.85
78331;BME280;67594;53.854;-1.542;2023-02-15T06:15:56;100320.63;;;15.81;46.98
78331;BME280;67594;53.854;-1.542;2023-02-15T06:18:22;100324.69;;;15.85;45.72
78331;BME280;67594;53.854;-1.542;2023-02-15T06:20:48;100324.31;;;15.80;46.34
78331;BME280;67594;53.854;-1.542;2023-02-15T06:23:14;100335.59;;;15.84;46.33
78331;BME280;67594;53.854;-1.542;2023-02-15T06:25:39;100342.50;;;15.86;46.49
78331;BME280;67594;53.854;-1.542;2023-02-15T06:28:05;100345.34;;;15.85;45.94
78331;BME280;67594;53.854;-1.542;2023-02-15T06:30:30;100345.72;;;15.90;45.30
78331;BME280;67594;53.854;-1.542;2023-02-15T06:32:56;100338.50;;;15.90;45.18
78331;BME280;67594;53.854;-1.542;2023-02-15T06:35:21;100339.34;;;15.91;45.72
78331;BME280;67594;53.854;-1.542;2023-02-15T06:37:47;100327.06;;;15.88;45.36
78331;BME280;67594;53.854;-1.542;2023-02-15T06:40:13;100322.53;;;15.89;45.42
78331;BME280;67594;53.854;-1.542;2023-02-15T06:42:38;100317.31;;;15.87;44.65
78331;BME280;67594;53.854;-1.542;2023-02-15T06:45:04;100313.09;;;15.85;45.33
78331;BME280;67594;53.854;-1.542;2023-02-15T06:47:30;100306.41;;;15.89;44.82
78331;BME280;67594;53.854;-1.542;2023-02-15T06:49:55;100296.47;;;15.89;45.68
78331;BME280;67594;53.854;-1.542;2023-02-15T06:52:20;100287.78;;;15.95;46.10
78331;BME280;67594;53.854;-1.542;2023-02-15T06:54:46;100279.72;;;15.95;45.39
78331;BME280;67594;53.854;-1.542;2023-02-15T06:57:11;100275.03;;;15.97;45.56
78331;BME280;67594;53.854;-1.542;2023-02-15T06:59:36;100278.59;;;15.98;45.74
78331;BME280;67594;53.854;-1.542;2023-02-15T07:02:02;100270.88;;;16.03;44.52
78331;BME280;67594;53.854;-1.542;2023-02-15T07:04:27;100270.88;;;16.03;45.69
78331;BME280;67594;53.854;-1.542;2023-02-15T07:06:52;100276.06;;;16.05;45.83
78331;BME280;67594;53.854;-1.542;2023-02-15T07:09:17;100286.50;;;16.08;45.34
78331;BME280;67594;53.854;-1.542;2023-02-15T07:11:43;100289.06;;;16.09;45.09
78331;BME280;67594;53.854;-1.542;2023-02-15T07:14:08;100279.28;;;16.08;48.62
78331;BME280;67594;53.854;-1.542;2023-02-15T07:16:33;100273.38;;;16.05;47.12
78331;BME280;67594;53.854;-1.542;2023-02-15T07:18:59;100274.41;;;16.04;45.89
78331;BME280;67594;53.854;-1.542;2023-02-15T07:21:24;100270.53;;;15.98;46.40
78331;BME280;67594;53.854;-1.542;2023-02-15T07:23:49;100260.66;;;16.07;46.04
78331;BME280;67594;53.854;-1.542;2023-02-15T07:26:15;100262.50;;;16.06;46.84
78331;BME280;67594;53.854;-1.542;2023-02-15T07:28:40;100252.91;;;16.04;48.38
78331;BME280;67594;53.854;-1.542;2023-02-15T07:31:05;100262.16;;;16.09;47.95
78331;BME280;67594;53.854;-1.542;2023-02-15T07:33:31;100273.94;;;16.16;47.79
78331;BME280;67594;53.854;-1.542;2023-02-15T07:35:59;100265.88;;;16.16;45.81
78331;BME280;67594;53.854;-1.542;2023-02-15T07:38:26;100274.81;;;16.17;45.22
78331;BME280;67594;53.854;-1.542;2023-02-15T07:40:51;100262.53;;;16.14;44.37
78331;BME280;67594;53.854;-1.542;2023-02-15T07:43:17;100262.72;;;16.21;53.63
78331;BME280;67594;53.854;-1.542;2023-02-15T07:45:42;100256.22;;;16.31;56.34
78331;BME280;67594;53.854;-1.542;2023-02-15T07:48:08;100250.00;;;16.31;54.89
78331;BME280;67594;53.854;-1.542;2023-02-15T07:50:34;100255.06;;;16.34;53.20
78331;BME280;67594;53.854;-1.542;2023-02-15T07:53:01;100235.91;;;16.37;51.56
78331;BME280;67594;53.854;-1.542;2023-02-15T07:55:27;100230.88;;;16.42;51.65
78331;BME280;67594;53.854;-1.542;2023-02-15T07:57:52;100235.09;;;16.44;49.63
78331;BME280;67594;53.854;-1.542;2023-02-15T08:00:19;100228.19;;;16.50;49.65
78331;BME280;67594;53.854;-1.542;2023-02-15T08:02:49;100235.09;;;16.52;47.90
78331;BME280;67594;53.854;-1.542;2023-02-15T08:05:15;100227.59;;;16.56;48.04
78331;BME280;67594;53.854;-1.542;2023-02-15T08:07:40;100233.34;;;16.61;46.61
78331;BME280;67594;53.854;-1.542;2023-02-15T08:10:06;100235.84;;;16.71;47.24
78331;BME280;67594;53.854;-1.542;2023-02-15T08:12:31;100226.84;;;16.88;47.64
78331;BME280;67594;53.854;-1.542;2023-02-15T08:14:56;100226.50;;;16.99;46.52
78331;BME280;67594;53.854;-1.542;2023-02-15T08:17:22;100221.97;;;17.24;46.90
78331;BME280;67594;53.854;-1.542;2023-02-15T08:19:47;100227.19;;;17.57;46.10
78331;BME280;67594;53.854;-1.542;2023-02-15T08:22:13;100212.38;;;17.61;45.57
78331;BME280;67594;53.854;-1.542;2023-02-15T08:24:39;100210.34;;;17.63;44.75
78331;BME280;67594;53.854;-1.542;2023-02-15T08:27:07;100216.63;;;18.11;43.48
78331;BME280;67594;53.854;-1.542;2023-02-15T08:29:34;100209.75;;;19.01;42.46
78331;BME280;67594;53.854;-1.542;2023-02-15T08:32:03;100212.25;;;19.85;40.01
78331;BME280;67594;53.854;-1.542;2023-02-15T08:34:30;100208.22;;;20.54;38.34
78331;BME280;67594;53.854;-1.542;2023-02-15T08:36:56;100208.16;;;21.26;37.64
78331;BME280;67594;53.854;-1.542;2023-02-15T08:39:22;100202.06;;;21.73;39.36
78331;BME280;67594;53.854;-1.542;2023-02-15T08:41:48;100194.88;;;22.21;39.42
78331;BME280;67594;53.854;-1.542;2023-02-15T08:44:15;100191.13;;;22.69;38.21
78331;BME280;67594;53.854;-1.542;2023-02-15T08:46:42;100190.34;;;22.88;37.29
78331;BME280;67594;53.854;-1.542;2023-02-15T08:49:14;100177.78;;;22.87;36.40
78331;BME280;67594;53.854;-1.542;2023-02-15T08:51:40;100189.91;;;22.78;36.54
78331;BME280;67594;53.854;-1.542;2023-02-15T08:54:09;100190.94;;;22.77;36.17
78331;BME280;67594;53.854;-1.542;2023-02-15T08:56:39;100183.75;;;22.63;36.16
78331;BME280;67594;53.854;-1.542;2023-02-15T08:59:06;100187.13;;;22.18;36.35
78331;BME280;67594;53.854;-1.542;2023-02-15T09:01:34;100184.81;;;21.80;36.97
78331;BME280;67594;53.854;-1.542;2023-02-15T09:04:04;100185.34;;;21.69;36.69
78331;BME280;67594;53.854;-1.542;2023-02-15T09:06:30;100173.56;;;21.83;36.17
78331;BME280;67594;53.854;-1.542;2023-02-15T09:08:56;100181.06;;;22.16;35.69
78331;BME280;67594;53.854;-1.542;2023-02-15T09:11:28;100171.50;;;22.26;34.92
78331;BME280;67594;53.854;-1.542;2023-02-15T09:13:58;100168.56;;;22.21;35.47
78331;BME280;67594;53.854;-1.542;2023-02-15T09:16:27;100193.53;;;22.51;34.46
78331;BME280;67594;53.854;-1.542;2023-02-15T09:18:53;100182.38;;;22.87;33.81
78331;BME280;67594;53.854;-1.542;2023-02-15T09:21:21;100193.91;;;23.02;33.39
78331;BME280;67594;53.854;-1.542;2023-02-15T09:23:48;100205.44;;;23.11;33.17
78331;BME280;67594;53.854;-1.542;2023-02-15T09:26:20;100183.09;;;23.22;32.80
78331;BME280;67594;53.854;-1.542;2023-02-15T09:28:46;100183.72;;;23.43;31.91
78331;BME280;67594;53.854;-1.542;2023-02-15T09:31:16;100187.91;;;23.52;32.27
78331;BME280;67594;53.854;-1.542;2023-02-15T09:33:43;100186.44;;;23.50;31.76
78331;BME280;67594;53.854;-1.542;2023-02-15T09:36:19;100178.28;;;23.50;31.85
78331;BME280;67594;53.854;-1.542;2023-02-15T09:38:46;100179.50;;;23.34;32.31
78331;BME280;67594;53.854;-1.542;2023-02-15T09:41:38;100162.34;;;23.21;32.16
78331;BME280;67594;53.854;-1.542;2023-02-15T09:57:32;100140.69;;;24.62;30.19
78331;BME280;67594;53.854;-1.542;2023-02-15T10:00:23;100138.78;;;24.62;30.51
78331;BME280;67594;53.854;-1.542;2023-02-15T10:03:25;100140.28;;;24.58;30.19
78331;BME280;67594;53.854;-1.542;2023-02-15T10:05:57;100149.47;;;24.64;29.66
78331;BME280;67594;53.854;-1.542;2023-02-15T10:08:52;100148.72;;;24.50;30.74
78331;BME280;67594;53.854;-1.542;2023-02-15T10:11:40;100149.75;;;24.49;30.73
78331;BME280;67594;53.854;-1.542;2023-02-15T10:14:24;100150.16;;;24.53;29.83
78331;BME280;67594;53.854;-1.542;2023-02-15T10:17:26;100148.31;;;24.47;30.03
78331;BME280;67594;53.854;-1.542;2023-02-15T10:25:40;100135.25;;;24.55;29.91
78331;BME280;67594;53.854;-1.542;2023-02-15T10:28:15;100121.66;;;24.49;30.76
78331;BME280;67594;53.854;-1.542;2023-02-15T10:33:25;100129.06;;;24.42;30.45
78331;BME280;67594;53.854;-1.542;2023-02-15T10:38:42;100131.13;;;24.40;30.58
78331;BME280;67594;53.854;-1.542;2023-02-15T10:43:58;100120.31;;;24.27;30.32
78331;BME280;67594;53.854;-1.542;2023-02-15T10:47:04;100120.13;;;24.22;30.33
78331;BME280;67594;53.854;-1.542;2023-02-15T10:55:50;100115.03;;;23.74;31.35
78331;BME280;67594;53.854;-1.542;2023-02-15T11:00:58;100116.75;;;23.03;33.22
78331;BME280;67594;53.854;-1.542;2023-02-15T11:06:08;100114.84;;;22.90;33.18
78331;BME280;67594;53.854;-1.542;2023-02-15T11:08:38;100112.97;;;22.91;33.21
78331;BME280;67594;53.854;-1.542;2023-02-15T11:11:08;100117.78;;;22.89;33.08
78331;BME280;67594;53.854;-1.542;2023-02-15T11:13:45;100111.09;;;22.85;33.60
78331;BME280;67594;53.854;-1.542;2023-02-15T11:16:25;100099.59;;;22.76;33.48
78331;BME280;67594;53.854;-1.542;2023-02-15T11:19:01;100105.19;;;22.68;33.79
78331;BME280;67594;53.854;-1.542;2023-02-15T11:21:32;100107.09;;;22.68;34.26
78331;BME280;67594;53.854;-1.542;2023-02-15T11:24:00;100107.47;;;22.58;34.38
78331;BME280;67594;53.854;-1.542;2023-02-15T11:26:33;100108.69;;;22.49;35.01
78331;BME280;67594;53.854;-1.542;2023-02-15T11:29:11;100106.81;;;22.43;34.54
78331;BME280;67594;53.854;-1.542;2023-02-15T11:31:44;100099.47;;;22.37;34.69
78331;BME280;67594;53.854;-1.542;2023-02-15T11:34:33;100104.44;;;22.27;34.68
78331;BME280;67594;53.854;-1.542;2023-02-15T11:37:05;100091.06;;;22.19;34.75
78331;BME280;67594;53.854;-1.542;2023-02-15T11:39:33;100086.44;;;22.13;35.32
78331;BME280;67594;53.854;-1.542;2023-02-15T11:42:13;100095.41;;;22.07;34.78
78331;BME280;67594;53.854;-1.542;2023-02-15T11:44:56;100084.06;;;21.96;35.17
78331;BME280;67594;53.854;-1.542;2023-02-15T11:47:24;100084.47;;;21.93;35.28
78331;BME280;67594;53.854;-1.542;2023-02-15T11:49:49;100077.31;;;21.86;35.15
78331;BME280;67594;53.854;-1.542;2023-02-15T11:52:16;100077.28;;;21.79;35.31
78331;BME280;67594;53.854;-1.542;2023-02-15T11:54:46;100070.56;;;21.75;35.06
78331;BME280;67594;53.854;-1.542;2023-02-15T11:57:17;100073.06;;;21.70;35.02
78331;BME280;67594;53.854;-1.542;2023-02-15T12:00:00;100066.56;;;21.65;35.02
78331;BME280;67594;53.854;-1.542;2023-02-15T12:02:27;100081.34;;;21.56;35.73
78331;BME280;67594;53.854;-1.542;2023-02-15T12:04:56;100072.75;;;21.52;35.27
78331;BME280;67594;53.854;-1.542;2023-02-15T12:07:27;100064.38;;;21.47;35.07
78331;BME280;67594;53.854;-1.542;2023-02-15T12:12:39;100079.31;;;21.36;35.42
78331;BME280;67594;53.854;-1.542;2023-02-15T12:15:10;100079.94;;;21.32;35.21
78331;BME280;67594;53.854;-1.542;2023-02-15T12:17:56;100075.09;;;21.27;35.22
78331;BME280;67594;53.854;-1.542;2023-02-15T12:20:27;100085.53;;;21.24;35.27
78331;BME280;67594;53.854;-1.542;2023-02-15T12:25:35;100089.19;;;21.16;35.56
78331;BME280;67594;53.854;-1.542;2023-02-15T12:28:02;100087.00;;;21.05;35.58
78331;BME280;67594;53.854;-1.542;2023-02-15T12:30:37;100095.00;;;20.92;35.32
78331;BME280;67594;53.854;-1.542;2023-02-15T12:35:35;100103.47;;;20.61;36.58
78331;BME280;67594;53.854;-1.542;2023-02-15T12:38:05;100108.94;;;20.47;36.65
78331;BME280;67594;53.854;-1.542;2023-02-15T12:40:32;100100.69;;;20.33;36.33
78331;BME280;67594;53.854;-1.542;2023-02-15T12:42:58;100097.81;;;20.20;37.18
78331;BME280;67594;53.854;-1.542;2023-02-15T12:45:27;100100.81;;;20.11;37.67
78331;BME280;67594;53.854;-1.542;2023-02-15T12:50:37;100101.41;;;19.92;37.51
78331;BME280;67594;53.854;-1.542;2023-02-15T12:53:23;100106.25;;;19.82;38.00
78331;BME280;67594;53.854;-1.542;2023-02-15T12:56:04;100107.19;;;19.74;38.33
78331;BME280;67594;53.854;-1.542;2023-02-15T12:58:34;100128.66;;;19.61;37.98
78331;BME280;67594;53.854;-1.542;2023-02-15T13:03:52;100129.03;;;19.43;38.24
78331;BME280;67594;53.854;-1.542;2023-02-15T13:06:20;100132.78;;;19.34;38.95
78331;BME280;67594;53.854;-1.542;2023-02-15T13:08:49;100131.84;;;19.27;38.70
78331;BME280;67594;53.854;-1.542;2023-02-15T13:11:22;100127.16;;;19.21;38.97
78331;BME280;67594;53.854;-1.542;2023-02-15T13:13:55;100135.00;;;19.16;38.29
78331;BME280;67594;53.854;-1.542;2023-02-15T13:16:33;100130.31;;;19.10;38.84
78331;BME280;67594;53.854;-1.542;2023-02-15T13:19:12;100130.69;;;19.07;39.13
78331;BME280;67594;53.854;-1.542;2023-02-15T13:21:41;100131.91;;;19.04;38.90
78331;BME280;67594;53.854;-1.542;2023-02-15T13:24:26;100138.47;;;19.02;39.47
78331;BME280;67594;53.854;-1.542;2023-02-15T13:26:55;100135.50;;;18.97;39.06
78331;BME280;67594;53.854;-1.542;2023-02-15T13:29:30;100142.09;;;18.94;39.54
78331;BME280;67594;53.854;-1.542;2023-02-15T13:32:06;100146.19;;;18.90;39.44
78331;BME280;67594;53.854;-1.542;2023-02-15T13:34:35;100153.16;;;18.85;39.00
78331;BME280;67594;53.854;-1.542;2023-02-15T13:40:19;100141.56;;;18.76;39.62
78331;BME280;67594;53.854;-1.542;2023-02-15T13:42:45;100143.13;;;18.70;39.57
78331;BME280;67594;53.854;-1.542;2023-02-15T13:48:30;100135.19;;;18.69;39.50
78331;BME280;67594;53.854;-1.542;2023-02-15T13:55:57;100155.47;;;18.88;38.93
78331;BME280;67594;53.854;-1.542;2023-02-15T14:06:34;100120.63;;;18.78;39.00
78331;BME280;67594;53.854;-1.542;2023-02-15T14:09:08;100113.91;;;18.74;39.56
78331;BME280;67594;53.854;-1.542;2023-02-15T14:17:36;100103.72;;;18.61;39.35
78331;BME280;67594;53.854;-1.542;2023-02-15T14:22:49;100105.06;;;18.57;39.75
78331;BME280;67594;53.854;-1.542;2023-02-15T14:27:50;100103.72;;;18.61;39.72
78331;BME280;67594;53.854;-1.542;2023-02-15T14:30:46;100110.59;;;18.64;39.76
78331;BME280;67594;53.854;-1.542;2023-02-15T14:33:55;100103.63;;;18.69;39.29
78331;BME280;67594;53.854;-1.542;2023-02-15T14:36:23;100102.91;;;18.76;39.48